• Join FlightAware (Why Join?)
  • Login
  • US Flag 
10:24AM EDT


 

Airport Tracker/Info


-or-


 

Live Flight TrackerFlight Track Log ✈ QXE2087 ✈ 04-Sep-2013 ✈ KALW - KSEA

Flight Track Log - Related Links

Times and Time Zones

All times are in EDT time to prevent confusion due to time zone crossing. See the QXE2087 flight status page for this flight to view local times or setup timezone preferences in your user account.

Time Position Orientation Groundspeed Altitude Reporting Facility
EDT Latitude Longitude Course Direction KTS MPH feet Rate Location/Type
09:34AM 46.2248 -118.9485 287° West  Level FlightAware Approximate
09:35AM 46.2485 -119.0598 287° West  Level FlightAware Approximate
09:36AM 46.2679 -119.1713 290° West  Level FlightAware Approximate
09:37AM 46.2954 -119.2809 290° West  Level FlightAware Approximate
09:38AM 46.3227 -119.3905 290° West  Level FlightAware Approximate
09:39AM 46.3422 -119.5029 284° West  Level FlightAware Approximate
09:40AM 46.3661 -119.6142 290° West  Level FlightAware Approximate
09:41AM 46.4025 -119.7181 297° West  Level FlightAware Approximate
09:42AM 46.4388 -119.8223 297° West  Level FlightAware Approximate
09:43AM 46.4751 -119.9266 297° West  Level FlightAware Approximate
09:44AM 46.5091 -120.0250 297° West  Level FlightAware Approximate
09:45AM 46.5431 -120.1235 297° West  Level FlightAware Approximate
09:46AM 46.5770 -120.2221 297° West  Level FlightAware Approximate
09:47AM 46.6108 -120.3209 297° West  Level FlightAware Approximate
09:48AM 46.6445 -120.4197 296° West  Level FlightAware Approximate
09:49AM 46.6781 -120.5187 296° West  Level FlightAware Approximate
09:50AM 46.7107 -120.6218 292° West  Level FlightAware Approximate
09:51AM 46.7393 -120.7243 292° West  Level FlightAware Approximate
09:52AM 46.7677 -120.8268 292° West  Level FlightAware Approximate
09:53AM 46.7950 -120.9301 290° West  Level FlightAware Approximate
09:54AM 46.8362 -121.0223 306° West  Level FlightAware Approximate
09:55AM 46.8786 -121.1141 303° West  Level FlightAware Approximate
09:56AM 46.9200 -121.2071 303° West  Level FlightAware Approximate
09:57AM 46.9613 -121.3002 303° West  Level FlightAware Approximate
09:58AM 47.0102 -121.3729 303° West  Level FlightAware Approximate
09:59AM 47.0516 -121.4661 303° West  Level FlightAware Approximate
10:00AM 47.0833 -121.5665 290° West  Level FlightAware Approximate
10:01AM 47.1320 -121.6518 310° West  Level FlightAware Approximate
10:02AM 47.1716 -121.7432 306° West  Level FlightAware Approximate
10:03AM 47.2206 -121.8265 301° West  Level FlightAware Approximate
10:04AM 47.2591 -121.9227 301° West  Level FlightAware Approximate
10:05AM 47.2957 -122.0205 296° West  Level FlightAware Approximate
10:06AM 47.3473 -122.1252 296° West  Level FlightAware Approximate
10:07AM 47.3998 -122.2330 306° West  Level FlightAware Approximate
10:08AM 47.4333 -122.3000 306° West  Level FlightAware Approximate
10:09AM 47.4499 -122.3118 306° West  Level Estimated
10:10AM 47.4499 -122.3118 306° West  Level Estimated
10:11AM 47.4499 -122.3118 306° West  Level Estimated
10:12AM 47.4499 -122.3118 306° West  Level Estimated
10:13AM 47.4499 -122.3118 306° West  Level Estimated
10:14AM 47.4499 -122.3118 306° West  Level Estimated
10:15AM 47.4499 -122.3118 306° West  Level Estimated
10:16AM 47.4499 -122.3118 306° West  Level Estimated
10:17AM 47.4499 -122.3118 306° West  Level Estimated
10:18AM 47.4499 -122.3118 306° West  Level Estimated